Time;durP1;ratioP1;P1;durP2;ratioP2;P2;SDS_P1;SDS_P2;PMS_P1;PMS_P2;Temp;Humidity;BMP_temperature;BMP_pressure;BME280_temperature;BME280_humidity;BME280_pressure;Samples;Min_cycle;Max_cycle;Signal;HPM_P1;HPM_P2
2024/01/01 00:01:24;;;;;;;51.13;27.63;;;;;;;;;;4998528;28;20057;-84
2024/01/01 00:03:51;;;;;;;50.25;28.98;;;;;;;;;;5002953;28;20055;-75
2024/01/01 00:06:18;;;;;;;55.70;30.35;;;;;;;;;;5001443;28;20053;-83
2024/01/01 00:08:45;;;;;;;55.38;33.67;;;;;;;;;;5003486;28;20041;-80
2024/01/01 00:11:15;;;;;;;58.55;32.88;;;;;;;;;;5004719;28;20061;-82
2024/01/01 00:13:42;;;;;;;53.25;32.90;;;;;;;;;;5032203;28;20049;-79
2024/01/01 00:16:09;;;;;;;56.42;33.15;;;;;;;;;;5007591;28;20052;-80
2024/01/01 00:18:36;;;;;;;55.40;32.15;;;;;;;;;;4996952;28;20077;-79
2024/01/01 00:21:03;;;;;;;55.50;31.77;;;;;;;;;;4995937;28;20053;-79
2024/01/01 00:23:30;;;;;;;49.28;28.55;;;;;;;;;;5006226;28;20579;-79
2024/01/01 00:25:57;;;;;;;51.85;28.75;;;;;;;;;;5024781;28;20493;-79
2024/01/01 00:28:23;;;;;;;50.63;26.75;;;;;;;;;;5006722;28;20133;-79
2024/01/01 00:30:50;;;;;;;41.40;23.92;;;;;;;;;;5006792;28;20099;-81
2024/01/01 00:33:17;;;;;;;38.22;23.25;;;;;;;;;;5035391;28;20072;-80
2024/01/01 00:35:45;;;;;;;33.33;20.05;;;;;;;;;;5002659;28;20405;-81
2024/01/01 00:38:11;;;;;;;34.15;19.48;;;;;;;;;;5019461;28;20123;-81
2024/01/01 00:40:39;;;;;;;28.02;17.90;;;;;;;;;;5023064;28;20049;-81
2024/01/01 00:43:06;;;;;;;28.05;16.80;;;;;;;;;;5009845;28;20042;-79
2024/01/01 00:45:32;;;;;;;23.08;14.85;;;;;;;;;;5005762;28;20401;-80
2024/01/01 00:48:11;;;;;;;26.13;14.52;;;;;;;;;;5022776;28;20429;-80
2024/01/01 00:50:39;;;;;;;22.30;13.57;;;;;;;;;;5020709;28;20045;-80
2024/01/01 00:53:06;;;;;;;20.95;13.20;;;;;;;;;;5023999;28;20053;-79
2024/01/01 00:55:33;;;;;;;21.75;10.60;;;;;;;;;;5007413;28;20103;-80
2024/01/01 00:58:00;;;;;;;15.45;9.75;;;;;;;;;;5002588;28;20049;-80
2024/01/01 01:00:28;;;;;;;17.42;9.45;;;;;;;;;;5038585;28;20049;-80
2024/01/01 01:02:54;;;;;;;16.48;9.45;;;;;;;;;;5022960;28;20092;-80
2024/01/01 01:05:24;;;;;;;15.98;8.52;;;;;;;;;;5004150;28;20124;-80
2024/01/01 01:07:51;;;;;;;12.57;7.43;;;;;;;;;;5004873;28;20049;-80
2024/01/01 01:10:18;;;;;;;16.08;9.30;;;;;;;;;;5019826;28;20058;-80
2024/01/01 01:12:44;;;;;;;14.63;9.07;;;;;;;;;;5007000;28;20049;-80
2024/01/01 01:15:11;;;;;;;16.38;8.50;;;;;;;;;;5013344;28;20034;-79
2024/01/01 01:17:38;;;;;;;17.20;9.48;;;;;;;;;;5022552;28;20300;-79
2024/01/01 01:20:05;;;;;;;15.10;8.23;;;;;;;;;;5025864;28;20030;-80
2024/01/01 01:22:34;;;;;;;13.10;7.57;;;;;;;;;;5011569;28;20045;-81
2024/01/01 01:25:00;;;;;;;13.00;7.05;;;;;;;;;;5014812;28;20081;-81
2024/01/01 01:27:27;;;;;;;12.98;7.90;;;;;;;;;;5001363;28;20099;-81
2024/01/01 01:29:54;;;;;;;13.05;7.35;;;;;;;;;;5002612;28;20099;-82
2024/01/01 01:32:21;;;;;;;13.82;7.05;;;;;;;;;;5018491;28;20057;-83
2024/01/01 01:34:48;;;;;;;14.40;6.80;;;;;;;;;;5016400;28;20129;-84
2024/01/01 01:37:15;;;;;;;13.32;7.20;;;;;;;;;;5017028;28;20049;-85
2024/01/01 01:39:42;;;;;;;13.63;6.45;;;;;;;;;;5000536;28;20045;-83
2024/01/01 01:42:09;;;;;;;10.32;6.75;;;;;;;;;;5012528;28;20053;-83
2024/01/01 01:44:35;;;;;;;7.88;4.95;;;;;;;;;;5000534;28;20096;-83
2024/01/01 01:47:02;;;;;;;9.13;5.03;;;;;;;;;;5015782;28;20060;-84
2024/01/01 01:49:30;;;;;;;11.57;6.15;;;;;;;;;;5015706;28;20045;-84
2024/01/01 01:51:57;;;;;;;10.85;5.25;;;;;;;;;;4999507;28;20084;-83
2024/01/01 01:54:24;;;;;;;10.80;5.90;;;;;;;;;;5015022;28;20123;-82
2024/01/01 01:56:51;;;;;;;10.77;5.28;;;;;;;;;;4998439;28;20497;-82
2024/01/01 01:59:18;;;;;;;11.35;5.10;;;;;;;;;;5001307;28;20057;-82
2024/01/01 02:01:45;;;;;;;10.82;5.22;;;;;;;;;;5015429;28;20049;-82
2024/01/01 02:04:13;;;;;;;9.60;5.35;;;;;;;;;;5015591;28;20436;-82
2024/01/01 02:06:40;;;;;;;12.73;6.28;;;;;;;;;;5016866;28;20061;-83
2024/01/01 02:09:07;;;;;;;9.13;5.35;;;;;;;;;;5014437;28;20088;-79
2024/01/01 02:11:34;;;;;;;11.80;5.13;;;;;;;;;;5015009;28;20070;-83
2024/01/01 02:14:14;;;;;;;10.05;4.57;;;;;;;;;;5028762;28;20080;-82
2024/01/01 02:16:40;;;;;;;9.93;4.82;;;;;;;;;;5009519;28;20049;-81
2024/01/01 02:19:16;;;;;;;8.57;4.70;;;;;;;;;;4995397;28;20060;-81
2024/01/01 02:21:43;;;;;;;8.32;4.75;;;;;;;;;;5016207;28;20056;-81
2024/01/01 02:24:10;;;;;;;7.78;3.88;;;;;;;;;;5015883;28;20083;-81
2024/01/01 02:26:37;;;;;;;6.13;4.07;;;;;;;;;;5015382;28;20141;-81
2024/01/01 02:29:05;;;;;;;6.43;3.90;;;;;;;;;;4993062;28;20425;-82
2024/01/01 02:31:32;;;;;;;9.65;4.18;;;;;;;;;;5000005;28;20056;-81
2024/01/01 02:33:59;;;;;;;12.15;4.28;;;;;;;;;;5025624;28;20049;-82
2024/01/01 02:36:26;;;;;;;6.57;3.70;;;;;;;;;;5017782;28;20049;-80
2024/01/01 02:38:53;;;;;;;7.03;3.65;;;;;;;;;;5018795;28;20562;-81
2024/01/01 02:41:19;;;;;;;8.25;3.97;;;;;;;;;;5011541;28;20053;-81
2024/01/01 02:43:46;;;;;;;8.00;4.15;;;;;;;;;;5019520;28;20448;-80
2024/01/01 02:46:13;;;;;;;10.43;3.55;;;;;;;;;;5033524;28;20094;-81
2024/01/01 02:48:40;;;;;;;7.95;3.90;;;;;;;;;;5026840;28;20065;-80
2024/01/01 02:51:08;;;;;;;7.38;3.85;;;;;;;;;;5011397;28;20123;-80
2024/01/01 02:53:35;;;;;;;6.25;3.90;;;;;;;;;;4998901;28;20060;-79
2024/01/01 02:56:02;;;;;;;6.38;3.85;;;;;;;;;;5006594;28;20116;-79
2024/01/01 02:58:29;;;;;;;6.80;4.18;;;;;;;;;;5018996;28;20072;-80
2024/01/01 03:00:56;;;;;;;6.75;3.92;;;;;;;;;;5028126;28;20049;-80
2024/01/01 03:03:23;;;;;;;7.80;4.05;;;;;;;;;;5005749;28;20060;-80
2024/01/01 03:05:49;;;;;;;12.80;4.82;;;;;;;;;;5038230;28;20531;-80
2024/01/01 03:08:16;;;;;;;6.25;3.58;;;;;;;;;;5000976;28;20053;-81
2024/01/01 03:10:43;;;;;;;8.27;4.18;;;;;;;;;;5016765;28;20140;-81
2024/01/01 03:13:10;;;;;;;7.32;4.43;;;;;;;;;;5017571;28;20524;-80
2024/01/01 03:15:37;;;;;;;9.52;4.45;;;;;;;;;;4999924;28;20053;-81
2024/01/01 03:18:05;;;;;;;6.32;4.20;;;;;;;;;;5017647;28;20103;-82
2024/01/01 03:20:33;;;;;;;10.45;5.13;;;;;;;;;;5016169;28;20571;-81
2024/01/01 03:23:00;;;;;;;9.43;4.68;;;;;;;;;;4995095;28;20045;-81
2024/01/01 03:25:27;;;;;;;8.90;4.70;;;;;;;;;;5019862;28;20050;-81
2024/01/01 03:27:55;;;;;;;12.07;4.93;;;;;;;;;;5025203;28;20113;-82
2024/01/01 03:30:23;;;;;;;9.40;4.90;;;;;;;;;;5019698;28;20077;-80
2024/01/01 03:32:50;;;;;;;9.65;5.35;;;;;;;;;;5011630;28;20071;-80
2024/01/01 03:35:19;;;;;;;11.23;5.28;;;;;;;;;;5008300;28;20084;-81
2024/01/01 03:37:46;;;;;;;10.15;5.38;;;;;;;;;;5011660;28;20523;-81
2024/01/01 03:40:13;;;;;;;10.68;5.03;;;;;;;;;;5004606;28;20096;-80
2024/01/01 03:42:40;;;;;;;8.70;5.60;;;;;;;;;;4997224;28;20501;-82
2024/01/01 03:45:08;;;;;;;9.80;5.03;;;;;;;;;;5012206;28;20066;-82
2024/01/01 03:47:35;;;;;;;9.80;5.25;;;;;;;;;;5017303;28;20045;-82
2024/01/01 03:50:02;;;;;;;8.82;5.65;;;;;;;;;;5019165;28;20433;-82
2024/01/01 03:52:28;;;;;;;8.20;4.85;;;;;;;;;;5019951;28;20049;-82
2024/01/01 03:54:57;;;;;;;9.15;5.07;;;;;;;;;;4999854;28;20081;-81
2024/01/01 03:57:24;;;;;;;9.10;5.95;;;;;;;;;;4998208;28;20154;-81
2024/01/01 03:59:51;;;;;;;10.80;5.30;;;;;;;;;;5034799;28;20077;-80
2024/01/01 04:02:18;;;;;;;8.30;4.63;;;;;;;;;;5012339;28;20076;-81
2024/01/01 04:04:45;;;;;;;13.75;4.60;;;;;;;;;;5026230;28;20045;-81
2024/01/01 04:07:13;;;;;;;7.88;3.92;;;;;;;;;;5007562;28;20081;-81
2024/01/01 04:09:39;;;;;;;9.77;4.68;;;;;;;;;;5006730;28;20081;-81
2024/01/01 04:12:06;;;;;;;6.97;4.07;;;;;;;;;;5023919;28;20088;-80
2024/01/01 04:14:33;;;;;;;7.68;4.03;;;;;;;;;;5013516;28;20106;-80
2024/01/01 04:17:00;;;;;;;8.68;3.95;;;;;;;;;;5022574;28;20048;-83
2024/01/01 04:19:27;;;;;;;7.47;4.00;;;;;;;;;;5012257;28;20044;-81
2024/01/01 04:21:54;;;;;;;7.72;4.30;;;;;;;;;;5020616;28;20095;-81
2024/01/01 04:24:21;;;;;;;7.00;3.58;;;;;;;;;;5021479;28;20057;-81
2024/01/01 04:26:48;;;;;;;6.60;3.40;;;;;;;;;;5021565;28;20095;-81
2024/01/01 04:29:16;;;;;;;7.25;3.20;;;;;;;;;;5020204;28;20046;-80
2024/01/01 04:31:44;;;;;;;8.23;3.88;;;;;;;;;;5005946;28;20057;-81
2024/01/01 04:34:11;;;;;;;8.43;3.70;;;;;;;;;;5007141;28;20053;-81
2024/01/01 04:36:39;;;;;;;5.72;3.58;;;;;;;;;;5007564;28;20471;-80
2024/01/01 04:39:06;;;;;;;6.50;3.25;;;;;;;;;;4998733;28;20060;-80
2024/01/01 04:41:33;;;;;;;5.10;2.90;;;;;;;;;;5017614;28;20072;-81
2024/01/01 04:44:00;;;;;;;7.05;3.42;;;;;;;;;;5040210;28;20065;-81
2024/01/01 04:46:26;;;;;;;7.40;2.70;;;;;;;;;;5041425;28;20057;-82
2024/01/01 04:48:53;;;;;;;6.80;2.85;;;;;;;;;;5033967;28;20054;-82
2024/01/01 04:51:20;;;;;;;4.97;2.35;;;;;;;;;;5025739;28;20053;-82
2024/01/01 04:53:49;;;;;;;7.03;2.80;;;;;;;;;;5027464;28;20132;-81
2024/01/01 04:56:17;;;;;;;4.85;2.33;;;;;;;;;;5007970;28;20061;-80
2024/01/01 04:58:44;;;;;;;6.38;2.42;;;;;;;;;;5025286;28;20049;-81
2024/01/01 05:01:10;;;;;;;4.68;2.30;;;;;;;;;;5020955;28;20394;-81
2024/01/01 05:03:37;;;;;;;5.57;2.00;;;;;;;;;;5023135;28;20053;-81
2024/01/01 05:06:04;;;;;;;3.80;2.00;;;;;;;;;;5022873;28;20045;-80
2024/01/01 05:08:32;;;;;;;8.40;2.20;;;;;;;;;;5017897;28;20052;-82
2024/01/01 05:11:03;;;;;;;2.83;1.58;;;;;;;;;;5003982;28;20538;-81
2024/01/01 05:13:30;;;;;;;8.15;2.17;;;;;;;;;;4997638;28;20049;-81
2024/01/01 05:15:57;;;;;;;3.53;1.73;;;;;;;;;;5014671;28;20073;-81
2024/01/01 05:18:24;;;;;;;4.82;1.70;;;;;;;;;;5013509;28;20440;-81
2024/01/01 05:20:51;;;;;;;4.07;1.60;;;;;;;;;;5018886;28;20139;-81
2024/01/01 05:23:17;;;;;;;3.83;1.92;;;;;;;;;;5012973;28;20049;-80
2024/01/01 05:25:44;;;;;;;3.03;1.00;;;;;;;;;;5014677;28;20076;-81
2024/01/01 05:28:11;;;;;;;2.47;1.42;;;;;;;;;;5019079;28;20060;-78
2024/01/01 05:30:39;;;;;;;1.77;1.30;;;;;;;;;;5012094;28;20122;-81
2024/01/01 05:33:06;;;;;;;5.18;1.80;;;;;;;;;;5028140;28;20061;-80
2024/01/01 05:35:33;;;;;;;2.22;1.13;;;;;;;;;;5016051;28;20163;-80
2024/01/01 05:38:00;;;;;;;1.95;1.08;;;;;;;;;;5015860;28;20410;-80
2024/01/01 05:40:27;;;;;;;4.32;1.08;;;;;;;;;;5015269;28;20505;-80
2024/01/01 05:42:54;;;;;;;1.63;0.70;;;;;;;;;;4998868;28;20045;-81
2024/01/01 05:45:21;;;;;;;2.90;1.00;;;;;;;;;;5000934;28;20068;-81
2024/01/01 05:47:48;;;;;;;2.30;0.70;;;;;;;;;;5020124;28;20134;-81
2024/01/01 05:50:15;;;;;;;2.17;0.85;;;;;;;;;;5017033;28;20145;-81
2024/01/01 05:52:42;;;;;;;6.53;1.35;;;;;;;;;;5007003;28;20049;-82
2024/01/01 05:55:09;;;;;;;2.65;1.20;;;;;;;;;;5005370;28;20169;-81
2024/01/01 05:57:45;;;;;;;3.92;1.30;;;;;;;;;;4999439;28;20053;-82
2024/01/01 06:00:13;;;;;;;4.05;1.08;;;;;;;;;;5039400;28;20075;-81
2024/01/01 06:02:39;;;;;;;4.68;0.90;;;;;;;;;;5007520;28;20057;-82
2024/01/01 06:05:06;;;;;;;4.78;1.10;;;;;;;;;;5005165;28;20061;-83
2024/01/01 06:07:33;;;;;;;3.95;1.30;;;;;;;;;;4999217;28;20100;-82
2024/01/01 06:10:00;;;;;;;3.25;0.90;;;;;;;;;;5002875;28;20045;-83
2024/01/01 06:12:27;;;;;;;1.73;1.00;;;;;;;;;;5018630;28;20054;-82
2024/01/01 06:14:54;;;;;;;4.07;1.48;;;;;;;;;;5019147;28;20115;-82
2024/01/01 06:17:21;;;;;;;2.25;0.95;;;;;;;;;;5002941;28;20049;-82
2024/01/01 06:19:50;;;;;;;2.67;0.90;;;;;;;;;;5001447;28;20111;-83
2024/01/01 06:22:17;;;;;;;1.83;1.13;;;;;;;;;;5001746;28;20080;-82
2024/01/01 06:24:44;;;;;;;3.00;1.00;;;;;;;;;;5003930;28;20052;-83
2024/01/01 06:27:11;;;;;;;3.20;1.08;;;;;;;;;;5024887;28;20502;-81
2024/01/01 06:29:38;;;;;;;4.38;0.82;;;;;;;;;;4991740;28;20085;-82
2024/01/01 06:32:05;;;;;;;2.72;0.90;;;;;;;;;;5002617;28;20497;-80
2024/01/01 06:34:31;;;;;;;2.75;0.95;;;;;;;;;;5001172;28;20058;-82
2024/01/01 06:36:58;;;;;;;2.70;1.20;;;;;;;;;;5012397;28;20065;-82
2024/01/01 06:39:26;;;;;;;4.30;1.35;;;;;;;;;;5014676;28;20136;-80
2024/01/01 06:41:52;;;;;;;1.80;0.90;;;;;;;;;;4999068;28;20658;-82
2024/01/01 06:44:20;;;;;;;2.95;0.98;;;;;;;;;;5007409;28;20053;-82
2024/01/01 06:46:47;;;;;;;4.03;1.13;;;;;;;;;;5000407;28;20049;-82
2024/01/01 06:49:14;;;;;;;1.52;0.80;;;;;;;;;;4999215;28;20053;-82
2024/01/01 06:51:41;;;;;;;3.38;1.10;;;;;;;;;;4998149;28;20053;-83
2024/01/01 06:54:07;;;;;;;3.67;1.02;;;;;;;;;;5012242;28;20584;-82
2024/01/01 06:56:39;;;;;;;6.22;1.80;;;;;;;;;;5019459;28;20107;-82
2024/01/01 06:59:05;;;;;;;3.00;1.35;;;;;;;;;;5005200;28;20065;-82
2024/01/01 07:01:32;;;;;;;4.72;1.10;;;;;;;;;;5002196;28;20095;-81
2024/01/01 07:03:59;;;;;;;5.22;0.70;;;;;;;;;;5015654;28;20049;-82
2024/01/01 07:06:26;;;;;;;4.50;1.02;;;;;;;;;;5020762;28;20049;-80
2024/01/01 07:08:53;;;;;;;2.88;0.65;;;;;;;;;;5019331;28;20092;-81
2024/01/01 07:11:19;;;;;;;2.33;0.80;;;;;;;;;;5014024;28;20156;-81
2024/01/01 07:13:46;;;;;;;2.30;0.73;;;;;;;;;;4999815;28;20049;-81
2024/01/01 07:16:13;;;;;;;2.17;0.70;;;;;;;;;;4999847;28;20053;-82
2024/01/01 07:18:40;;;;;;;3.75;0.80;;;;;;;;;;4997760;28;20046;-81
2024/01/01 07:21:07;;;;;;;2.22;0.90;;;;;;;;;;4997706;28;20088;-81
2024/01/01 07:23:34;;;;;;;4.22;0.93;;;;;;;;;;4999649;28;20509;-80
2024/01/01 07:26:01;;;;;;;4.45;1.15;;;;;;;;;;4995737;28;20054;-81
2024/01/01 07:28:28;;;;;;;3.80;1.55;;;;;;;;;;5018781;28;20049;-80
2024/01/01 07:30:57;;;;;;;4.50;1.00;;;;;;;;;;5017600;28;20386;-81
2024/01/01 07:33:24;;;;;;;2.45;0.82;;;;;;;;;;5017001;28;20060;-82
2024/01/01 07:35:51;;;;;;;6.28;1.52;;;;;;;;;;4982402;28;20049;-81
2024/01/01 07:38:17;;;;;;;9.80;1.20;;;;;;;;;;5015938;28;20646;-82
2024/01/01 07:40:44;;;;;;;3.22;0.70;;;;;;;;;;4998140;28;20056;-80
2024/01/01 07:43:14;;;;;;;5.90;0.95;;;;;;;;;;4998086;28;20429;-82
2024/01/01 07:45:41;;;;;;;2.60;0.65;;;;;;;;;;5015910;28;20084;-81
2024/01/01 07:48:09;;;;;;;5.30;0.70;;;;;;;;;;5014777;28;20053;-81
2024/01/01 07:50:37;;;;;;;5.03;1.10;;;;;;;;;;4999937;28;20468;-81
2024/01/01 07:53:04;;;;;;;2.38;0.77;;;;;;;;;;5018783;28;20114;-81
2024/01/01 07:55:31;;;;;;;3.78;1.30;;;;;;;;;;5008481;28;20050;-83
2024/01/01 07:57:58;;;;;;;3.95;1.00;;;;;;;;;;5002287;28;20060;-82
2024/01/01 08:00:24;;;;;;;3.35;0.73;;;;;;;;;;5019438;28;21273;-83
2024/01/01 08:02:51;;;;;;;3.65;0.63;;;;;;;;;;5004784;28;20065;-83
2024/01/01 08:05:18;;;;;;;6.00;0.85;;;;;;;;;;5011667;28;20060;-83
2024/01/01 08:07:48;;;;;;;4.13;1.00;;;;;;;;;;5010618;28;20468;-83
2024/01/01 08:10:15;;;;;;;2.95;1.00;;;;;;;;;;5011436;28;20112;-82
2024/01/01 08:12:42;;;;;;;3.38;0.80;;;;;;;;;;5003546;28;20075;-84
2024/01/01 08:15:09;;;;;;;6.03;1.15;;;;;;;;;;5006373;28;20425;-82
2024/01/01 08:17:36;;;;;;;5.60;1.35;;;;;;;;;;5021687;28;20505;-83
2024/01/01 08:20:04;;;;;;;1.45;0.47;;;;;;;;;;5033589;28;20114;-80
2024/01/01 08:22:31;;;;;;;9.05;0.98;;;;;;;;;;5013919;28;20091;-82
2024/01/01 08:24:57;;;;;;;4.72;0.68;;;;;;;;;;5012057;28;20087;-81
2024/01/01 08:27:24;;;;;;;4.78;1.00;;;;;;;;;;4999642;28;20539;-81
2024/01/01 08:29:51;;;;;;;4.82;0.80;;;;;;;;;;5033982;28;20110;-81
2024/01/01 08:32:18;;;;;;;2.67;0.90;;;;;;;;;;4997557;28;20127;-80
2024/01/01 08:34:45;;;;;;;1.88;1.17;;;;;;;;;;5021882;28;20129;-81
2024/01/01 08:37:11;;;;;;;3.30;1.25;;;;;;;;;;5028366;28;20049;-79
2024/01/01 08:39:38;;;;;;;5.53;2.38;;;;;;;;;;5006074;28;20436;-80
2024/01/01 08:42:05;;;;;;;4.05;0.90;;;;;;;;;;4993672;28;20065;-81
2024/01/01 08:44:32;;;;;;;4.47;1.02;;;;;;;;;;4997398;28;20141;-81
2024/01/01 08:46:59;;;;;;;2.83;1.42;;;;;;;;;;5029352;28;20060;-80
2024/01/01 08:49:26;;;;;;;2.13;0.80;;;;;;;;;;5000075;28;20041;-81
2024/01/01 08:51:53;;;;;;;2.47;0.60;;;;;;;;;;4991518;28;20170;-80
2024/01/01 08:54:19;;;;;;;7.43;0.82;;;;;;;;;;5016712;28;20525;-80
2024/01/01 08:56:46;;;;;;;6.43;0.70;;;;;;;;;;5006074;28;20058;-80
2024/01/01 08:59:13;;;;;;;3.40;0.60;;;;;;;;;;5037172;28;20053;-79
2024/01/01 09:01:44;;;;;;;7.43;2.25;;;;;;;;;;4995036;28;20509;-83
2024/01/01 09:04:11;;;;;;;5.55;1.20;;;;;;;;;;5001447;28;20060;-84
2024/01/01 09:06:38;;;;;;;4.88;1.30;;;;;;;;;;5002117;28;20089;-85
2024/01/01 09:09:08;;;;;;;3.33;1.02;;;;;;;;;;4999111;28;20488;-81
2024/01/01 09:11:35;;;;;;;4.70;0.93;;;;;;;;;;4997385;28;20054;-80
2024/01/01 09:14:02;;;;;;;3.42;0.90;;;;;;;;;;5001423;28;20513;-83
2024/01/01 09:16:31;;;;;;;6.30;1.50;;;;;;;;;;5025230;28;20092;-83
2024/01/01 09:19:02;;;;;;;3.38;1.30;;;;;;;;;;4992600;28;20053;-81
2024/01/01 09:21:28;;;;;;;3.83;1.10;;;;;;;;;;5010439;28;20061;-81
2024/01/01 09:24:00;;;;;;;3.38;0.85;;;;;;;;;;4998898;28;20116;-81
2024/01/01 09:26:29;;;;;;;4.40;1.27;;;;;;;;;;5001878;28;20061;-82
2024/01/01 09:28:57;;;;;;;2.83;0.80;;;;;;;;;;4997611;28;20049;-82
2024/01/01 09:31:24;;;;;;;3.55;0.70;;;;;;;;;;4999002;28;20082;-85
2024/01/01 09:33:51;;;;;;;4.20;0.70;;;;;;;;;;4997281;28;20049;-82
2024/01/01 09:36:18;;;;;;;5.40;0.80;;;;;;;;;;5031623;28;20602;-83
2024/01/01 09:38:45;;;;;;;6.32;1.00;;;;;;;;;;5005094;28;20099;-82
2024/01/01 09:41:12;;;;;;;4.57;1.40;;;;;;;;;;4995854;28;20081;-82
2024/01/01 09:43:44;;;;;;;6.28;0.73;;;;;;;;;;4997448;28;20096;-82
2024/01/01 09:46:13;;;;;;;2.25;0.95;;;;;;;;;;4995695;28;20056;-83
2024/01/01 09:48:39;;;;;;;4.43;0.95;;;;;;;;;;4998746;28;20081;-82
2024/01/01 09:51:06;;;;;;;12.13;1.08;;;;;;;;;;5013177;28;20057;-83
2024/01/01 09:53:33;;;;;;;2.58;0.50;;;;;;;;;;5022926;28;20081;-82
2024/01/01 09:56:00;;;;;;;4.20;0.80;;;;;;;;;;5018896;28;20057;-80
2024/01/01 09:58:27;;;;;;;4.45;0.70;;;;;;;;;;5025442;28;20089;-82
2024/01/01 10:01:07;;;;;;;3.80;0.95;;;;;;;;;;4997494;28;20468;-82
2024/01/01 10:03:34;;;;;;;2.97;0.80;;;;;;;;;;5001862;28;20053;-81
2024/01/01 10:06:07;;;;;;;5.05;1.10;;;;;;;;;;4996723;28;20081;-81
2024/01/01 10:08:34;;;;;;;2.90;0.80;;;;;;;;;;4990734;28;20107;-82
2024/01/01 10:11:16;;;;;;;3.22;0.70;;;;;;;;;;5007862;28;20088;-85
2024/01/01 10:13:43;;;;;;;5.20;0.80;;;;;;;;;;5007440;28;20053;-84
2024/01/01 10:16:09;;;;;;;4.13;1.00;;;;;;;;;;5023491;28;20062;-83
2024/01/01 10:18:36;;;;;;;1.75;0.47;;;;;;;;;;5005529;28;20480;-83
2024/01/01 10:21:13;;;;;;;2.53;1.02;;;;;;;;;;4994407;28;20080;-84
2024/01/01 10:23:41;;;;;;;4.30;0.70;;;;;;;;;;4996430;28;20076;-84
2024/01/01 10:26:12;;;;;;;3.10;0.70;;;;;;;;;;5004220;28;20053;-84
2024/01/01 10:28:40;;;;;;;3.30;0.70;;;;;;;;;;5004307;28;20115;-83
2024/01/01 10:31:07;;;;;;;2.25;0.35;;;;;;;;;;5016896;28;20144;-79
2024/01/01 10:33:34;;;;;;;1.85;0.70;;;;;;;;;;4995517;28;20098;-81
2024/01/01 10:36:03;;;;;;;5.32;0.80;;;;;;;;;;5010527;28;20053;-79
2024/01/01 10:38:31;;;;;;;2.25;0.45;;;;;;;;;;5034396;28;20081;-79
2024/01/01 10:40:58;;;;;;;6.15;1.17;;;;;;;;;;4993953;28;20049;-79
2024/01/01 10:43:27;;;;;;;3.55;0.60;;;;;;;;;;4996924;28;20061;-79
2024/01/01 10:46:00;;;;;;;7.18;1.10;;;;;;;;;;4998381;28;20428;-81
2024/01/01 10:48:27;;;;;;;4.20;0.88;;;;;;;;;;4998357;28;20045;-79
2024/01/01 10:51:03;;;;;;;3.53;0.80;;;;;;;;;;5004193;28;20435;-80
2024/01/01 10:53:44;;;;;;;5.07;0.60;;;;;;;;;;5028402;28;20126;-80
2024/01/01 10:56:36;;;;;;;4.65;1.10;;;;;;;;;;5014849;28;20073;-80
2024/01/01 10:59:19;;;;;;;4.90;1.50;;;;;;;;;;5018235;28;20115;-83
2024/01/01 11:01:51;;;;;;;4.10;0.80;;;;;;;;;;5012396;28;20057;-81
2024/01/01 11:04:21;;;;;;;5.07;1.00;;;;;;;;;;5027623;28;20053;-80
2024/01/01 11:06:48;;;;;;;9.02;1.55;;;;;;;;;;5000235;28;20049;-80
2024/01/01 11:09:18;;;;;;;4.63;1.35;;;;;;;;;;5015024;28;20049;-81
2024/01/01 11:11:48;;;;;;;3.90;0.60;;;;;;;;;;5057530;28;20053;-79
2024/01/01 11:14:31;;;;;;;9.93;3.45;;;;;;;;;;5011363;28;20068;-80
2024/01/01 11:17:02;;;;;;;8.30;1.83;;;;;;;;;;5021460;28;20054;-79
2024/01/01 11:19:37;;;;;;;5.28;1.27;;;;;;;;;;5007885;28;20049;-81
2024/01/01 11:22:20;;;;;;;3.85;1.10;;;;;;;;;;4997816;28;20050;-80
2024/01/01 11:24:47;;;;;;;8.18;1.83;;;;;;;;;;5028902;28;20140;-81
2024/01/01 11:27:25;;;;;;;8.35;1.10;;;;;;;;;;5003266;28;20053;-80
2024/01/01 11:29:52;;;;;;;4.85;1.70;;;;;;;;;;5027637;28;20045;-81
2024/01/01 11:32:19;;;;;;;14.63;1.40;;;;;;;;;;5003283;28;20053;-82
2024/01/01 11:35:09;;;;;;;6.82;1.33;;;;;;;;;;5006739;28;20521;-83
2024/01/01 11:37:37;;;;;;;9.13;1.40;;;;;;;;;;5034183;28;20638;-82
2024/01/01 11:40:05;;;;;;;5.68;1.20;;;;;;;;;;5008815;28;20116;-81
2024/01/01 11:42:32;;;;;;;4.18;1.00;;;;;;;;;;5000551;28;20085;-81
2024/01/01 11:45:13;;;;;;;6.07;1.15;;;;;;;;;;4997871;28;20049;-83
2024/01/01 11:47:40;;;;;;;9.10;1.63;;;;;;;;;;5023822;28;20045;-80
2024/01/01 11:50:08;;;;;;;6.25;1.42;;;;;;;;;;5000225;28;20076;-82
2024/01/01 11:52:35;;;;;;;7.15;1.10;;;;;;;;;;5003808;28;20049;-81
2024/01/01 11:55:03;;;;;;;4.10;0.80;;;;;;;;;;5012143;28;20049;-81
2024/01/01 11:57:30;;;;;;;6.20;1.80;;;;;;;;;;5017111;28;20053;-82
2024/01/01 11:59:57;;;;;;;11.23;1.67;;;;;;;;;;5017655;28;20096;-81
2024/01/01 12:02:24;;;;;;;7.45;1.83;;;;;;;;;;5018686;28;20061;-81
2024/01/01 12:04:52;;;;;;;4.40;1.20;;;;;;;;;;5030804;28;20116;-81
2024/01/01 12:07:26;;;;;;;7.25;1.58;;;;;;;;;;5017473;28;20033;-81
2024/01/01 12:10:07;;;;;;;6.60;1.17;;;;;;;;;;5050527;28;20072;-81
2024/01/01 12:12:35;;;;;;;7.85;1.25;;;;;;;;;;5016987;28;20073;-82
2024/01/01 12:15:16;;;;;;;6.72;1.17;;;;;;;;;;5018048;28;20057;-82
2024/01/01 12:17:44;;;;;;;5.63;1.63;;;;;;;;;;5014856;28;20033;-81
2024/01/01 12:20:23;;;;;;;4.50;1.10;;;;;;;;;;5008434;28;20096;-82
2024/01/01 12:22:52;;;;;;;5.97;0.82;;;;;;;;;;5051224;28;20082;-81
2024/01/01 12:25:23;;;;;;;9.05;1.40;;;;;;;;;;5013735;28;20080;-81
2024/01/01 12:28:07;;;;;;;5.35;1.10;;;;;;;;;;4997814;28;20139;-81
2024/01/01 12:30:36;;;;;;;4.72;1.02;;;;;;;;;;5018861;28;20042;-81
2024/01/01 12:33:04;;;;;;;5.35;1.60;;;;;;;;;;5002810;28;20053;-81
2024/01/01 12:35:34;;;;;;;4.65;1.38;;;;;;;;;;5007407;28;20053;-81
2024/01/01 12:38:01;;;;;;;8.18;1.15;;;;;;;;;;5017685;28;20034;-81
2024/01/01 12:40:29;;;;;;;7.75;1.98;;;;;;;;;;5012364;28;20107;-81
2024/01/01 12:42:57;;;;;;;5.65;1.23;;;;;;;;;;5004321;28;20049;-81
2024/01/01 12:45:25;;;;;;;2.72;0.85;;;;;;;;;;5000969;28;20057;-81
2024/01/01 12:47:57;;;;;;;3.83;0.90;;;;;;;;;;4997245;28;20049;-81
2024/01/01 12:50:24;;;;;;;2.97;0.93;;;;;;;;;;5009409;28;20049;-80
2024/01/01 12:52:51;;;;;;;11.10;2.17;;;;;;;;;;4996747;28;20047;-78
2024/01/01 12:55:19;;;;;;;6.57;1.73;;;;;;;;;;5004045;28;20107;-79
2024/01/01 12:57:46;;;;;;;4.97;1.20;;;;;;;;;;5000955;28;20100;-78
2024/01/01 13:00:16;;;;;;;4.75;1.40;;;;;;;;;;4961742;28;20499;-79
2024/01/01 13:02:43;;;;;;;7.20;2.40;;;;;;;;;;4937538;29;20058;-78
2024/01/01 13:05:10;;;;;;;3.53;1.15;;;;;;;;;;4934825;29;20055;-79
2024/01/01 13:07:38;;;;;;;3.58;0.80;;;;;;;;;;4919913;29;20706;-77
2024/01/01 13:10:08;;;;;;;5.45;1.10;;;;;;;;;;4914543;29;20050;-78
2024/01/01 13:12:36;;;;;;;6.03;1.20;;;;;;;;;;4936250;29;20054;-78
2024/01/01 13:15:04;;;;;;;6.68;0.85;;;;;;;;;;4933091;29;20059;-77
2024/01/01 13:17:31;;;;;;;5.05;1.15;;;;;;;;;;4935132;29;20047;-77
2024/01/01 13:19:58;;;;;;;6.18;1.08;;;;;;;;;;4918483;29;20103;-76
2024/01/01 13:22:26;;;;;;;3.20;1.17;;;;;;;;;;4934476;29;20114;-76
2024/01/01 13:24:54;;;;;;;4.60;1.10;;;;;;;;;;4964215;28;20551;-76
2024/01/01 13:27:21;;;;;;;2.95;0.70;;;;;;;;;;4934891;29;20726;-79
2024/01/01 13:29:48;;;;;;;4.68;1.30;;;;;;;;;;4920349;29;20047;-79
2024/01/01 13:32:16;;;;;;;5.60;1.50;;;;;;;;;;4934623;29;20047;-79
2024/01/01 13:34:43;;;;;;;4.35;1.40;;;;;;;;;;4920286;29;20050;-79
2024/01/01 13:37:11;;;;;;;4.00;0.80;;;;;;;;;;4935858;29;20055;-79
2024/01/01 13:39:41;;;;;;;4.68;0.98;;;;;;;;;;4966598;28;20139;-78
2024/01/01 13:42:08;;;;;;;6.85;1.20;;;;;;;;;;4936003;29;20059;-78
2024/01/01 13:44:35;;;;;;;4.93;0.90;;;;;;;;;;4919550;29;20748;-78
2024/01/01 13:47:03;;;;;;;6.45;1.48;;;;;;;;;;4933555;29;20058;-78
2024/01/01 13:49:34;;;;;;;6.28;1.20;;;;;;;;;;4962661;28;20122;-78
2024/01/01 13:52:02;;;;;;;5.80;1.60;;;;;;;;;;4935472;29;20098;-79
2024/01/01 13:54:29;;;;;;;5.82;1.38;;;;;;;;;;4935673;29;20047;-79
2024/01/01 13:56:57;;;;;;;3.42;0.80;;;;;;;;;;4963446;28;20427;-78
2024/01/01 13:59:24;;;;;;;12.50;1.67;;;;;;;;;;4982335;28;20146;-79
2024/01/01 14:01:52;;;;;;;8.20;1.13;;;;;;;;;;4933746;29;20043;-79
2024/01/01 14:04:19;;;;;;;4.93;1.15;;;;;;;;;;4918952;29;20138;-78
2024/01/01 14:06:46;;;;;;;6.05;1.08;;;;;;;;;;4933223;29;20101;-78
2024/01/01 14:09:14;;;;;;;7.40;0.90;;;;;;;;;;4913358;29;20069;-78
2024/01/01 14:11:47;;;;;;;8.45;1.45;;;;;;;;;;4919520;29;20047;-78
2024/01/01 14:14:14;;;;;;;6.22;1.70;;;;;;;;;;4934026;29;20478;-77
2024/01/01 14:16:48;;;;;;;7.10;1.30;;;;;;;;;;4919774;29;20059;-77
2024/01/01 14:19:15;;;;;;;16.08;3.38;;;;;;;;;;4944410;28;20043;-78
2024/01/01 14:21:43;;;;;;;6.50;1.98;;;;;;;;;;4933119;29;20047;-78
2024/01/01 14:24:11;;;;;;;11.18;1.67;;;;;;;;;;4935610;29;20126;-78
2024/01/01 14:26:38;;;;;;;7.43;1.40;;;;;;;;;;4922693;29;20487;-77
2024/01/01 14:29:05;;;;;;;3.97;1.00;;;;;;;;;;4946713;28;20062;-77
2024/01/01 14:31:33;;;;;;;7.45;1.50;;;;;;;;;;4946904;28;20546;-77
2024/01/01 14:34:00;;;;;;;6.95;1.67;;;;;;;;;;4929056;29;20055;-77
2024/01/01 14:36:27;;;;;;;5.15;1.08;;;;;;;;;;4914618;29;20047;-78
2024/01/01 14:38:55;;;;;;;6.50;1.25;;;;;;;;;;4947905;29;20051;-77
2024/01/01 14:41:22;;;;;;;3.58;0.90;;;;;;;;;;4918512;29;20055;-78
2024/01/01 14:43:50;;;;;;;4.03;1.00;;;;;;;;;;4952089;29;20430;-77
2024/01/01 14:46:17;;;;;;;6.55;1.02;;;;;;;;;;4931726;29;20051;-77